Time;durP1;ratioP1;P1;durP2;ratioP2;P2;SDS_P1;SDS_P2;PMS_P1;PMS_P2;Temp;Humidity;BMP_temperature;BMP_pressure;BME280_temperature;BME280_humidity;BME280_pressure;Samples;Min_cycle;Max_cycle;Signal;HPM_P1;HPM_P2
2024/04/23 00:01:43;;;;;;;4.07;3.07;;;;;;;4.99;100.00;102281.56;7705386;22;20628;-64
2024/04/23 00:05:05;;;;;;;4.73;4.07;;;;;;;5.07;100.00;102282.09;7719255;22;20274;-64
2024/04/23 00:08:28;;;;;;;2.67;2.43;;;;;;;5.18;100.00;102279.84;7719800;22;20610;-65
2024/04/23 00:11:50;;;;;;;4.13;3.50;;;;;;;5.06;100.00;102272.38;7712687;22;20262;-64
2024/04/23 00:15:10;;;;;;;3.77;3.47;;;;;;;5.00;100.00;102261.06;7719125;22;20266;-64
2024/04/23 00:18:32;;;;;;;3.43;3.13;;;;;;;5.01;100.00;102260.13;7719960;22;20281;-64
2024/04/23 00:21:54;;;;;;;3.90;3.50;;;;;;;4.95;100.00;102266.59;7713841;22;20266;-65
2024/04/23 00:25:19;;;;;;;4.10;3.70;;;;;;;4.85;100.00;102265.28;7711219;22;20266;-63
2024/04/23 00:28:41;;;;;;;5.17;3.97;;;;;;;4.96;100.00;102252.34;7725167;22;20267;-65
2024/04/23 00:32:04;;;;;;;3.47;3.20;;;;;;;4.97;100.00;102253.19;7705297;22;20282;-64
2024/04/23 00:35:26;;;;;;;4.23;3.40;;;;;;;4.84;100.00;102251.03;7714035;22;20282;-64
2024/04/23 00:38:48;;;;;;;3.67;3.37;;;;;;;4.74;100.00;102254.16;7723780;22;20266;-64
2024/04/23 00:42:11;;;;;;;3.93;3.70;;;;;;;4.71;100.00;102247.16;7710033;22;20277;-64
2024/04/23 00:45:36;;;;;;;3.93;3.10;;;;;;;4.73;100.00;102239.09;7705224;22;20266;-65
2024/04/23 00:48:56;;;;;;;4.47;3.70;;;;;;;4.62;100.00;102234.22;7720886;22;20269;-64
2024/04/23 00:52:19;;;;;;;4.50;3.00;;;;;;;4.57;100.00;102230.84;7710419;22;20278;-65
2024/04/23 00:55:43;;;;;;;4.17;3.80;;;;;;;4.59;100.00;102228.13;7703959;22;20274;-65
2024/04/23 00:59:07;;;;;;;4.50;3.57;;;;;;;4.60;100.00;102236.06;7724431;22;20266;-65
2024/04/23 01:02:29;;;;;;;3.77;2.90;;;;;;;4.51;100.00;102222.22;7713673;22;20266;-65
2024/04/23 01:05:52;;;;;;;3.30;2.90;;;;;;;4.55;100.00;102222.03;7715602;22;20488;-65
2024/04/23 01:09:12;;;;;;;3.60;2.97;;;;;;;4.53;100.00;102223.91;7726193;22;20274;-65
2024/04/23 01:12:34;;;;;;;3.00;2.70;;;;;;;4.53;100.00;102225.69;7710104;22;20266;-65
2024/04/23 01:16:00;;;;;;;5.33;3.93;;;;;;;4.56;100.00;102225.59;7714534;22;20278;-65
2024/04/23 01:19:27;;;;;;;4.50;3.57;;;;;;;4.58;100.00;102224.59;7724272;22;20274;-65
2024/04/23 01:23:08;;;;;;;3.70;3.40;;;;;;;4.47;100.00;102224.16;7713626;22;20261;-64
2024/04/23 01:26:31;;;;;;;3.83;3.40;;;;;;;4.41;100.00;102219.09;7710872;22;20262;-65
2024/04/23 01:29:54;;;;;;;3.87;3.57;;;;;;;4.29;100.00;102210.72;7724587;22;20325;-65
2024/04/23 01:33:19;;;;;;;4.87;3.70;;;;;;;4.15;100.00;102205.09;7717665;22;20262;-64
2024/04/23 01:36:38;;;;;;;6.83;5.03;;;;;;;4.07;100.00;102202.72;7709886;22;20285;-64
2024/04/23 01:40:03;;;;;;;5.93;3.47;;;;;;;3.73;100.00;102205.88;7724410;22;20265;-64
2024/04/23 01:43:26;;;;;;;6.17;3.20;;;;;;;4.03;100.00;102191.31;7722566;22;20553;-65
2024/04/23 01:46:49;;;;;;;4.13;3.70;;;;;;;4.06;100.00;102195.66;7700467;22;20499;-64
2024/04/23 01:50:11;;;;;;;3.77;3.47;;;;;;;4.07;100.00;102186.72;7712733;22;20411;-63
2024/04/23 01:53:34;;;;;;;3.53;3.23;;;;;;;4.15;100.00;102195.28;7722133;22;20595;-65
2024/04/23 01:56:56;;;;;;;6.17;3.63;;;;;;;3.95;100.00;102198.75;7707334;22;20278;-64
2024/04/23 02:00:22;;;;;;;4.27;3.63;;;;;;;3.87;100.00;102190.19;7716690;22;20282;-63
2024/04/23 02:03:43;;;;;;;4.07;3.30;;;;;;;3.89;100.00;102190.13;7721398;22;20274;-64
2024/04/23 02:07:06;;;;;;;5.47;3.53;;;;;;;3.87;100.00;102189.31;7707165;22;20421;-65
2024/04/23 02:10:29;;;;;;;2.93;2.73;;;;;;;3.81;100.00;102184.25;7714841;22;21357;-64
2024/04/23 02:13:50;;;;;;;6.43;4.13;;;;;;;3.84;100.00;102186.75;7719683;22;20410;-64
2024/04/23 02:17:17;;;;;;;4.43;4.03;;;;;;;3.75;100.00;102195.16;7712941;22;20266;-63
2024/04/23 02:20:39;;;;;;;4.93;3.87;;;;;;;3.81;100.00;102193.13;7693211;22;20973;-64
2024/04/23 02:24:02;;;;;;;3.43;3.13;;;;;;;3.98;100.00;102190.63;7724172;22;20285;-64
2024/04/23 02:27:25;;;;;;;6.83;4.33;;;;;;;3.91;100.00;102190.94;7708434;22;20337;-64
2024/04/23 02:30:44;;;;;;;4.27;3.67;;;;;;;3.83;100.00;102177.91;7694855;22;20571;-64
2024/04/23 02:34:11;;;;;;;4.40;4.03;;;;;;;3.83;100.00;102182.38;7719320;22;20444;-65
2024/04/23 02:37:31;;;;;;;3.80;3.50;;;;;;;3.74;100.00;102180.06;7712806;22;20298;-64
2024/04/23 02:40:53;;;;;;;4.57;4.00;;;;;;;3.77;100.00;102187.97;7713073;22;20633;-64
2024/04/23 02:44:16;;;;;;;5.20;4.70;;;;;;;3.76;100.00;102183.53;7722884;22;20270;-65
2024/04/23 02:47:35;;;;;;;5.37;4.97;;;;;;;3.63;100.00;102184.97;7705022;22;20282;-64
2024/04/23 02:51:00;;;;;;;5.70;3.93;;;;;;;3.64;100.00;102187.56;7712128;22;20269;-64
2024/04/23 02:54:23;;;;;;;4.23;3.93;;;;;;;3.61;100.00;102186.84;7720680;22;20266;-65
2024/04/23 02:57:42;;;;;;;5.77;4.10;;;;;;;3.59;100.00;102173.53;7713762;22;20266;-64
2024/04/23 03:01:05;;;;;;;3.90;3.40;;;;;;;3.48;100.00;102177.56;7707703;22;20274;-64
2024/04/23 03:04:24;;;;;;;7.00;5.37;;;;;;;3.45;100.00;102169.69;7719463;22;20333;-65
2024/04/23 03:07:49;;;;;;;4.27;3.97;;;;;;;3.43;100.00;102166.19;7709479;22;20274;-64
2024/04/23 03:11:09;;;;;;;5.73;4.17;;;;;;;3.41;100.00;102166.28;7713312;22;20285;-64
2024/04/23 03:14:31;;;;;;;4.50;4.10;;;;;;;3.38;100.00;102166.38;7720947;22;20279;-64
2024/04/23 03:17:53;;;;;;;5.00;4.60;;;;;;;3.40;100.00;102167.19;7709263;22;20482;-64
2024/04/23 03:21:16;;;;;;;4.07;3.67;;;;;;;3.33;100.00;102154.16;7707332;22;20318;-64
2024/04/23 03:24:42;;;;;;;5.77;5.17;;;;;;;3.39;100.00;102156.59;7721994;22;20696;-64
2024/04/23 03:28:02;;;;;;;11.73;4.27;;;;;;;3.51;100.00;102151.66;7716677;22;20585;-64
2024/04/23 03:31:24;;;;;;;5.27;4.17;;;;;;;3.52;100.00;102148.06;7714358;22;20574;-64
2024/04/23 03:34:47;;;;;;;5.80;5.20;;;;;;;3.33;100.00;102147.03;7727516;22;20266;-65
2024/04/23 03:38:09;;;;;;;4.53;4.10;;;;;;;3.34;100.00;102142.59;7725329;22;20285;-64
2024/04/23 03:41:34;;;;;;;5.03;4.10;;;;;;;3.25;100.00;102141.16;7710185;22;20269;-64
2024/04/23 03:44:57;;;;;;;4.67;4.27;;;;;;;3.30;100.00;102132.97;7729133;22;20915;-64
2024/04/23 03:48:20;;;;;;;5.53;5.03;;;;;;;3.22;100.00;102136.78;7724088;22;20274;-64
2024/04/23 03:51:40;;;;;;;7.60;5.47;;;;;;;3.21;100.00;102134.19;7718275;22;20289;-64
2024/04/23 03:55:02;;;;;;;7.40;4.83;;;;;;;3.16;100.00;102137.03;7728003;22;20274;-64
2024/04/23 03:58:24;;;;;;;5.70;3.87;;;;;;;3.22;100.00;102127.94;7728184;22;20585;-64
2024/04/23 04:01:46;;;;;;;6.43;5.37;;;;;;;3.10;100.00;102121.28;7709291;22;20609;-63
2024/04/23 04:08:47;;;;;;;5.50;5.00;;;;;;;3.07;100.00;102121.38;7724112;22;20333;-64
2024/04/23 04:12:10;;;;;;;4.70;4.30;;;;;;;3.13;100.00;102125.59;7712156;22;20549;-64
2024/04/23 04:15:34;;;;;;;5.47;4.97;;;;;;;3.13;100.00;102134.47;7719958;22;20501;-64
2024/04/23 04:18:57;;;;;;;6.27;5.30;;;;;;;3.21;100.00;102135.03;7721287;22;20274;-64
2024/04/23 04:22:19;;;;;;;37.67;33.57;;;;;;;3.27;100.00;102138.41;7716291;22;20270;-65
2024/04/23 04:25:39;;;;;;;16.97;15.27;;;;;;;3.26;100.00;102142.88;7699097;22;20266;-65
2024/04/23 04:29:01;;;;;;;7.30;5.47;;;;;;;3.32;100.00;102134.63;7724858;22;20318;-64
2024/04/23 04:32:26;;;;;;;13.00;11.70;;;;;;;3.45;100.00;102127.91;7704699;22;20488;-64
2024/04/23 04:35:47;;;;;;;22.47;18.00;;;;;;;3.60;100.00;102134.44;7694995;22;20262;-66
2024/04/23 04:39:09;;;;;;;12.90;9.17;;;;;;;3.80;100.00;102127.34;7718331;22;20718;-64
2024/04/23 04:42:29;;;;;;;20.30;18.20;;;;;;;4.03;100.00;102123.75;7707205;22;20270;-62
2024/04/23 04:45:51;;;;;;;9.13;7.73;;;;;;;4.22;100.00;102118.50;7709715;22;20610;-67
2024/04/23 04:49:16;;;;;;;7.00;4.20;;;;;;;4.09;100.00;102118.13;7720901;22;20650;-65
2024/04/23 04:52:39;;;;;;;6.70;5.57;;;;;;;4.36;100.00;102119.63;7712065;22;20269;-65
2024/04/23 04:55:58;;;;;;;5.83;4.43;;;;;;;4.39;100.00;102119.53;7713951;22;20266;-65
2024/04/23 04:59:20;;;;;;;5.10;4.60;;;;;;;4.64;100.00;102114.84;7724776;22;20274;-66
2024/04/23 05:02:42;;;;;;;5.73;3.90;;;;;;;4.70;100.00;102108.34;7689206;22;20281;-65
2024/04/23 05:06:05;;;;;;;5.33;3.97;;;;;;;4.71;100.00;102116.28;7709130;22;20270;-65
2024/04/23 05:09:28;;;;;;;4.70;4.30;;;;;;;4.96;100.00;102104.50;7722767;22;20571;-65
2024/04/23 05:12:50;;;;;;;4.37;3.70;;;;;;;5.11;100.00;102106.47;7716191;22;20266;-65
2024/04/23 05:16:10;;;;;;;7.13;4.63;;;;;;;5.33;100.00;102089.34;7716582;22;20309;-65
2024/04/23 05:19:32;;;;;;;4.47;4.00;;;;;;;5.31;100.00;102103.72;7721181;22;20597;-64
2024/04/23 05:22:57;;;;;;;4.40;3.87;;;;;;;5.06;100.00;102095.13;7709988;22;20266;-66
2024/04/23 05:26:17;;;;;;;5.67;4.50;;;;;;;5.39;100.00;102099.75;7712119;22;20261;-65
2024/04/23 05:29:41;;;;;;;3.57;2.93;;;;;;;5.28;100.00;102101.19;7719673;22;20281;-65
2024/04/23 05:33:00;;;;;;;4.80;4.40;;;;;;;5.39;100.00;102098.88;7715546;22;20278;-65
2024/04/23 05:36:25;;;;;;;4.57;4.17;;;;;;;4.97;100.00;102101.75;7711266;22;20270;-64
2024/04/23 05:39:50;;;;;;;4.77;4.07;;;;;;;5.23;100.00;102105.91;7726891;22;20270;-65
2024/04/23 05:43:12;;;;;;;4.50;3.37;;;;;;;5.27;100.00;102100.34;7723565;22;22386;-65
2024/04/23 05:46:35;;;;;;;4.23;3.90;;;;;;;5.55;100.00;102099.84;7708632;22;20266;-65
2024/04/23 05:50:34;;;;;;;3.40;2.90;;;;;;;5.29;100.00;102097.59;7703016;22;20311;-64
2024/04/23 05:54:53;;;;;;;3.80;3.50;;;;;;;5.25;100.00;102093.31;7723287;22;20282;-65
2024/04/23 05:58:37;;;;;;;6.23;4.53;;;;;;;5.52;100.00;102092.00;7726244;22;20513;-65
2024/04/23 06:01:57;;;;;;;3.47;3.17;;;;;;;5.73;100.00;102098.09;7696245;22;20298;-66
2024/04/23 06:05:20;;;;;;;2.90;2.63;;;;;;;5.65;100.00;102095.81;7712439;22;20452;-66
2024/04/23 06:08:42;;;;;;;3.97;3.33;;;;;;;5.42;100.00;102098.75;7720715;22;20675;-65
2024/04/23 06:12:05;;;;;;;8.53;4.10;;;;;;;5.96;100.00;102084.50;7708837;22;20270;-66
2024/04/23 06:15:30;;;;;;;6.07;3.70;;;;;;;6.16;100.00;102078.97;7685241;22;20933;-65
2024/04/23 06:18:52;;;;;;;4.73;4.27;;;;;;;6.51;100.00;102083.38;7720095;22;20266;-66
2024/04/23 06:22:15;;;;;;;5.63;3.57;;;;;;;6.72;100.00;102074.19;7702439;22;20610;-65
2024/04/23 06:25:37;;;;;;;6.57;3.57;;;;;;;6.86;100.00;102076.16;7714892;22;20282;-65
2024/04/23 06:29:00;;;;;;;3.70;3.10;;;;;;;7.14;100.00;102071.00;7722821;22;20277;-65
2024/04/23 06:32:23;;;;;;;4.33;3.43;;;;;;;7.16;100.00;102067.28;7713329;22;20270;-63
2024/04/23 06:35:45;;;;;;;5.97;3.10;;;;;;;6.55;100.00;102066.19;7700129;22;20277;-66
2024/04/23 06:39:08;;;;;;;8.03;3.73;;;;;;;6.90;100.00;102067.88;7724501;22;20270;-65
2024/04/23 06:42:28;;;;;;;4.93;4.03;;;;;;;6.74;100.00;102066.94;7715792;22;20539;-65
2024/04/23 06:45:53;;;;;;;4.13;3.70;;;;;;;6.93;100.00;102065.00;7696121;22;20277;-66
2024/04/23 06:49:15;;;;;;;4.47;3.80;;;;;;;7.04;100.00;102056.38;7719227;22;21018;-64
2024/04/23 06:52:37;;;;;;;4.73;4.33;;;;;;;7.23;100.00;102049.03;7715785;22;20265;-65
2024/04/23 06:56:00;;;;;;;3.37;3.07;;;;;;;7.03;100.00;102049.28;7717390;22;20274;-65
2024/04/23 06:59:23;;;;;;;3.63;3.23;;;;;;;6.86;100.00;102060.91;7723724;22;20265;-65
2024/04/23 07:02:45;;;;;;;4.00;3.37;;;;;;;6.67;100.00;102048.63;7700574;22;20321;-64
2024/04/23 07:06:10;;;;;;;4.17;3.77;;;;;;;6.87;100.00;102038.53;7712444;22;20288;-65
2024/04/23 07:09:32;;;;;;;4.37;3.37;;;;;;;7.02;100.00;102039.50;7722283;22;20274;-65
2024/04/23 07:12:52;;;;;;;3.97;3.10;;;;;;;6.27;100.00;102041.81;7715844;22;20266;-65
2024/04/23 07:16:14;;;;;;;4.13;3.63;;;;;;;6.69;100.00;102036.88;7698945;22;20325;-65
2024/04/23 07:19:37;;;;;;;3.77;3.47;;;;;;;6.84;100.00;102038.69;7720866;22;20602;-66
2024/04/23 07:22:59;;;;;;;4.77;4.37;;;;;;;6.64;100.00;102036.25;7708507;22;20274;-65
2024/04/23 07:26:22;;;;;;;4.90;3.53;;;;;;;6.30;100.00;102042.50;7712199;22;20262;-65
2024/04/23 07:29:44;;;;;;;5.93;3.63;;;;;;;6.51;100.00;102034.31;7725895;22;20447;-66
2024/04/23 07:33:07;;;;;;;3.77;3.43;;;;;;;6.31;100.00;102036.22;7718062;22;20269;-65
2024/04/23 07:36:28;;;;;;;5.37;4.13;;;;;;;6.47;100.00;102033.59;7718566;22;20266;-66
2024/04/23 07:39:53;;;;;;;4.03;3.63;;;;;;;6.18;100.00;102024.41;7726345;22;20270;-64
2024/04/23 07:43:14;;;;;;;7.10;3.80;;;;;;;6.59;100.00;102038.31;7722839;22;20370;-65
2024/04/23 07:46:36;;;;;;;4.50;4.10;;;;;;;6.74;100.00;102026.75;7707321;22;20285;-66
2024/04/23 07:49:59;;;;;;;3.10;2.80;;;;;;;6.18;100.00;102020.88;7702352;22;20274;-65
2024/04/23 07:53:21;;;;;;;3.13;2.93;;;;;;;6.93;100.00;102010.53;7719354;22;20270;-64
2024/04/23 07:56:46;;;;;;;5.50;4.20;;;;;;;6.97;100.00;102006.72;7711869;22;20270;-65
2024/04/23 08:00:10;;;;;;;3.20;2.70;;;;;;;6.70;100.00;102018.94;7719017;22;20274;-66
2024/04/23 08:03:34;;;;;;;4.30;3.47;;;;;;;6.81;100.00;102009.41;7719631;22;20266;-66
2024/04/23 08:06:56;;;;;;;2.40;2.20;;;;;;;6.64;100.00;101997.84;7709658;22;20270;-64
2024/04/23 08:10:19;;;;;;;4.47;2.23;;;;;;;6.43;100.00;101991.84;7714909;22;20293;-64
2024/04/23 08:13:44;;;;;;;3.27;2.17;;;;;;;7.45;100.00;101982.47;7726071;22;20270;-65
2024/04/23 08:17:06;;;;;;;4.07;2.77;;;;;;;7.46;100.00;101988.72;7703168;22;20447;-65
2024/04/23 08:20:29;;;;;;;3.10;2.30;;;;;;;7.74;100.00;101987.00;7716016;22;20914;-65
2024/04/23 08:23:52;;;;;;;3.73;2.10;;;;;;;7.96;100.00;101982.09;7724661;22;20266;-65
2024/04/23 08:27:14;;;;;;;3.20;2.90;;;;;;;7.08;100.00;101985.53;7710947;22;20290;-64
2024/04/23 08:30:37;;;;;;;2.83;2.63;;;;;;;7.17;100.00;102001.13;7701999;22;20278;-65
2024/04/23 08:33:59;;;;;;;3.50;3.20;;;;;;;7.20;100.00;101977.66;7719464;22;20274;-66
2024/04/23 08:37:21;;;;;;;2.73;2.50;;;;;;;7.19;100.00;101977.75;7713850;22;20274;-65
2024/04/23 08:40:43;;;;;;;3.53;2.67;;;;;;;7.23;100.00;101968.59;7699233;22;20500;-65
2024/04/23 08:44:10;;;;;;;2.80;2.37;;;;;;;8.30;100.00;101963.94;7724990;22;20277;-65
2024/04/23 08:47:36;;;;;;;7.67;2.40;;;;;;;7.25;100.00;101967.56;7711862;22;20494;-65
2024/04/23 08:50:59;;;;;;;2.70;2.50;;;;;;;7.84;100.00;101958.66;7711232;22;20278;-65
2024/04/23 08:54:22;;;;;;;2.40;2.20;;;;;;;7.78;100.00;101952.81;7724479;22;21027;-65
2024/04/23 08:57:45;;;;;;;3.37;2.63;;;;;;;7.37;100.00;101947.19;7702817;22;20285;-65
2024/04/23 09:01:09;;;;;;;2.37;2.20;;;;;;;8.27;100.00;101950.69;7707047;22;20581;-65
2024/04/23 09:04:35;;;;;;;2.73;2.40;;;;;;;8.79;100.00;101936.56;7723256;22;20266;-65
2024/04/23 09:07:58;;;;;;;4.70;2.60;;;;;;;8.89;100.00;101935.97;7710909;22;20585;-65
2024/04/23 09:11:21;;;;;;;2.27;2.07;;;;;;;8.39;100.00;101929.31;7717656;22;20266;-64
2024/04/23 09:14:46;;;;;;;2.83;2.50;;;;;;;7.46;100.00;101929.69;7722800;22;20264;-65
2024/04/23 09:18:08;;;;;;;4.23;3.20;;;;;;;8.12;100.00;101922.06;7710434;22;20261;-65
2024/04/23 09:21:33;;;;;;;3.57;2.77;;;;;;;8.44;100.00;101924.53;7735605;22;20606;-65
2024/04/23 09:25:00;;;;;;;3.57;2.70;;;;;;;8.74;100.00;101919.00;7724439;22;20274;-65
2024/04/23 09:28:24;;;;;;;3.97;3.60;;;;;;;8.83;100.00;101911.22;7720842;22;20270;-64
2024/04/23 09:31:47;;;;;;;2.27;2.07;;;;;;;8.75;100.00;101918.03;7698089;22;20266;-65
2024/04/23 09:35:17;;;;;;;3.10;2.87;;;;;;;9.15;100.00;101901.03;7713197;22;20281;-66
2024/04/23 09:38:43;;;;;;;3.00;2.73;;;;;;;9.25;100.00;101904.81;7717178;22;20266;-65
2024/04/23 09:42:03;;;;;;;2.80;2.60;;;;;;;8.69;100.00;101897.81;7714318;22;20574;-65
2024/04/23 09:45:28;;;;;;;4.63;2.93;;;;;;;9.06;100.00;101892.69;7714179;22;20936;-66
2024/04/23 09:48:53;;;;;;;2.53;2.33;;;;;;;7.85;100.00;101895.97;7717366;22;20558;-65
2024/04/23 09:52:13;;;;;;;2.73;2.53;;;;;;;8.44;100.00;101886.03;7717373;22;20282;-65
2024/04/23 09:55:37;;;;;;;2.50;2.30;;;;;;;8.27;100.00;101888.91;7720794;22;20262;-64
2024/04/23 09:58:57;;;;;;;4.40;2.20;;;;;;;8.83;100.00;101878.94;7728186;22;20278;-65
2024/04/23 10:02:28;;;;;;;3.93;2.30;;;;;;;9.14;100.00;101872.38;7711403;22;20582;-66
2024/04/23 10:05:51;;;;;;;2.07;1.97;;;;;;;8.89;100.00;101868.75;7712252;22;20534;-65
2024/04/23 10:09:18;;;;;;;3.60;2.80;;;;;;;9.44;100.00;101862.25;7722664;22;20270;-64
2024/04/23 10:12:47;;;;;;;3.00;2.80;;;;;;;9.58;100.00;101855.91;7715914;22;20266;-65
2024/04/23 10:16:16;;;;;;;2.80;2.17;;;;;;;9.19;100.00;101847.88;7707639;22;20314;-64
2024/04/23 10:19:37;;;;;;;2.27;2.10;;;;;;;8.64;100.00;101847.97;7722443;22;20357;-65
2024/04/23 10:23:00;;;;;;;4.27;2.30;;;;;;;8.97;100.00;101850.28;7715582;22;20258;-65
2024/04/23 10:26:23;;;;;;;2.63;2.43;;;;;;;8.93;96.51;101843.41;7713203;22;20270;-65
2024/04/23 10:29:49;;;;;;;2.17;1.97;;;;;;;8.97;93.80;101828.78;7724828;22;20265;-65
2024/04/23 10:33:13;;;;;;;2.70;2.50;;;;;;;8.44;92.21;101824.22;7719813;22;20278;-65
2024/04/23 10:36:38;;;;;;;7.17;2.77;;;;;;;9.01;91.23;101820.38;7712129;22;20278;-65
2024/04/23 10:40:02;;;;;;;2.30;2.03;;;;;;;9.32;87.93;101817.34;7721183;22;20266;-65
2024/04/23 10:43:25;;;;;;;2.47;1.90;;;;;;;10.49;87.75;101799.09;7722632;22;20254;-64
2024/04/23 10:46:50;;;;;;;2.77;2.53;;;;;;;9.77;88.21;101793.56;7708160;22;20546;-64
2024/04/23 10:50:13;;;;;;;2.87;2.57;;;;;;;10.39;88.98;101800.72;7710395;22;20310;-64
2024/04/23 10:53:36;;;;;;;3.23;1.60;;;;;;;11.03;81.15;101794.09;7720189;22;20270;-65
2024/04/23 10:56:57;;;;;;;3.10;1.50;;;;;;;12.51;73.01;101774.09;7713931;22;20269;-65
2024/04/23 11:00:19;;;;;;;3.57;2.67;;;;;;;11.97;71.54;101780.28;7709215;22;20298;-65
2024/04/23 11:03:41;;;;;;;1.83;1.70;;;;;;;10.96;67.64;101788.28;7718978;22;20535;-65
2024/04/23 11:07:05;;;;;;;2.60;2.40;;;;;;;12.64;64.15;101777.53;7710296;22;20274;-65
2024/04/23 11:10:27;;;;;;;2.40;2.20;;;;;;;11.51;66.76;101774.13;7712534;22;20848;-66
2024/04/23 11:14:00;;;;;;;3.57;3.27;;;;;;;12.17;69.73;101770.59;7720993;22;20269;-65
2024/04/23 11:17:24;;;;;;;4.47;3.30;;;;;;;10.54;74.57;101751.06;7709754;22;20937;-65
2024/04/23 11:20:50;;;;;;;4.30;2.83;;;;;;;9.58;80.78;101776.03;7709459;22;20266;-65
2024/04/23 11:24:18;;;;;;;3.50;3.20;;;;;;;9.94;85.66;101751.00;7724245;22;20266;-65
2024/04/23 11:27:41;;;;;;;3.87;2.97;;;;;;;11.04;84.53;101750.78;7716763;22;20277;-65
2024/04/23 11:31:04;;;;;;;3.90;3.30;;;;;;;10.52;84.84;101744.06;7710813;22;20258;-63
2024/04/23 11:34:25;;;;;;;3.23;2.93;;;;;;;9.77;86.78;101751.34;7724796;22;20281;-65
2024/04/23 11:37:56;;;;;;;3.43;3.13;;;;;;;9.64;88.42;101743.28;7715756;22;20270;-65
2024/04/23 11:41:16;;;;;;;5.10;3.93;;;;;;;9.00;91.09;101743.38;7716495;22;20793;-65
2024/04/23 11:44:38;;;;;;;3.77;3.47;;;;;;;9.42;92.33;101723.38;7726397;22;20277;-65
2024/04/23 11:48:00;;;;;;;5.43;4.03;;;;;;;9.89;92.13;101722.69;7710349;22;20270;-64
2024/04/23 11:51:22;;;;;;;3.20;2.97;;;;;;;10.10;89.64;101697.75;7712261;22;20309;-64
2024/04/23 11:54:47;;;;;;;3.73;3.33;;;;;;;9.63;90.48;101703.03;7728303;22;20370;-66
2024/04/23 11:58:09;;;;;;;3.47;3.17;;;;;;;9.39;90.25;101710.13;7716362;22;20278;-65
2024/04/23 12:01:29;;;;;;;3.13;2.83;;;;;;;9.64;89.73;101702.91;7707845;22;20582;-65
2024/04/23 12:04:51;;;;;;;3.33;3.03;;;;;;;9.84;89.53;101689.84;7726296;22;20273;-65
2024/04/23 12:08:13;;;;;;;3.13;2.93;;;;;;;9.81;87.36;101701.69;7718213;22;20450;-65
2024/04/23 12:11:39;;;;;;;2.90;2.60;;;;;;;9.92;84.97;101692.84;7711834;22;20270;-64
2024/04/23 12:15:01;;;;;;;3.00;2.67;;;;;;;10.38;83.13;101683.97;7726554;22;20571;-65
2024/04/23 12:18:21;;;;;;;4.20;3.00;;;;;;;10.22;80.48;101661.81;7720513;22;20270;-66
2024/04/23 12:21:43;;;;;;;3.33;3.03;;;;;;;9.68;81.74;101684.69;7716063;22;20270;-64
2024/04/23 12:25:04;;;;;;;3.37;3.00;;;;;;;10.21;83.39;101689.75;7726538;22;20274;-65
2024/04/23 12:28:28;;;;;;;3.40;2.60;;;;;;;10.03;82.25;101665.97;7720583;22;20270;-65
2024/04/23 12:31:56;;;;;;;3.83;2.97;;;;;;;10.14;82.87;101666.91;7713783;22;20980;-65
2024/04/23 12:35:21;;;;;;;2.50;2.30;;;;;;;10.26;82.79;101659.78;7711626;22;20270;-64
2024/04/23 12:38:42;;;;;;;3.03;2.70;;;;;;;9.84;80.92;101658.41;7726182;22;20309;-65
2024/04/23 12:42:15;;;;;;;4.57;2.50;;;;;;;9.99;81.65;101648.31;7717275;22;20262;-65
2024/04/23 12:45:40;;;;;;;2.20;1.77;;;;;;;9.70;81.00;101646.91;7713581;22;21112;-65
2024/04/23 12:49:03;;;;;;;2.70;2.20;;;;;;;9.90;80.24;101632.84;7720884;22;23060;-65
2024/04/23 12:52:23;;;;;;;2.87;2.47;;;;;;;10.71;77.84;101621.22;7705952;22;20534;-65
2024/04/23 12:55:45;;;;;;;2.63;2.43;;;;;;;10.57;75.99;101626.81;7710073;22;20278;-65
2024/04/23 12:59:07;;;;;;;5.20;3.23;;;;;;;10.27;74.89;101621.06;7725592;22;20266;-65
2024/04/23 13:02:32;;;;;;;3.03;2.47;;;;;;;10.56;76.27;101622.41;7713803;22;20270;-65
2024/04/23 13:05:52;;;;;;;2.80;2.20;;;;;;;10.85;74.09;101614.72;7713899;22;20265;-65
2024/04/23 13:09:15;;;;;;;3.93;2.27;;;;;;;10.23;71.14;101603.41;7725444;22;20294;-65
2024/04/23 13:12:35;;;;;;;2.37;2.17;;;;;;;9.81;73.55;101596.66;7711018;22;20262;-63
2024/04/23 13:15:57;;;;;;;4.40;2.93;;;;;;;10.11;74.22;101601.66;7706891;22;20266;-64
2024/04/23 13:19:25;;;;;;;2.70;2.27;;;;;;;10.11;74.93;101596.25;7723641;22;20262;-65
2024/04/23 13:22:47;;;;;;;3.27;2.37;;;;;;;9.99;76.49;101594.47;7703941;22;20289;-64
2024/04/23 13:26:07;;;;;;;2.77;2.50;;;;;;;10.04;77.14;101590.44;7711253;22;20273;-65
2024/04/23 13:29:30;;;;;;;5.57;2.20;;;;;;;9.97;76.56;101591.03;7723666;22;20262;-65
2024/04/23 13:32:53;;;;;;;2.00;1.90;;;;;;;10.15;76.50;101570.81;7707070;22;20274;-64
2024/04/23 13:36:17;;;;;;;3.90;2.53;;;;;;;10.17;74.57;101569.72;7716708;22;20285;-65
2024/04/23 13:39:38;;;;;;;2.40;2.07;;;;;;;10.40;74.98;101559.88;7727409;22;20282;-65
2024/04/23 13:43:00;;;;;;;2.50;2.37;;;;;;;10.20;73.90;101553.28;7711182;22;20262;-65
2024/04/23 13:46:20;;;;;;;4.23;2.20;;;;;;;10.17;73.65;101545.47;7712054;22;20265;-64
2024/04/23 13:49:43;;;;;;;3.67;2.73;;;;;;;9.58;72.32;101541.84;7724080;22;20278;-65
2024/04/23 13:53:08;;;;;;;2.17;1.97;;;;;;;9.73;70.48;101522.81;7707560;22;20266;-65
2024/04/23 13:56:30;;;;;;;2.10;2.00;;;;;;;9.88;69.40;101522.53;7713191;22;20282;-64
2024/04/23 13:59:52;;;;;;;1.97;1.87;;;;;;;10.00;69.50;101510.84;7722496;22;20770;-65
2024/04/23 14:03:12;;;;;;;3.37;2.40;;;;;;;9.92;70.79;101504.31;7710985;22;20270;-64
2024/04/23 14:06:34;;;;;;;2.17;2.07;;;;;;;9.91;73.08;101495.38;7710511;22;20270;-66
2024/04/23 14:09:59;;;;;;;3.13;2.67;;;;;;;9.79;73.46;101484.66;7722024;22;20266;-65
2024/04/23 14:13:21;;;;;;;3.50;2.43;;;;;;;10.08;73.84;101494.94;7721674;22;20266;-65
2024/04/23 14:16:43;;;;;;;2.60;2.40;;;;;;;9.49;73.44;101486.00;7703857;22;20493;-65
2024/04/23 14:20:07;;;;;;;2.90;2.40;;;;;;;9.90;73.60;101476.63;7721630;22;20910;-65
2024/04/23 14:23:33;;;;;;;2.07;1.97;;;;;;;9.39;72.94;101476.03;7723148;22;20511;-65
2024/04/23 14:26:58;;;;;;;4.40;2.80;;;;;;;9.54;72.35;101466.81;7713945;22;20437;-65
2024/04/23 14:30:21;;;;;;;2.33;2.23;;;;;;;9.52;72.56;101461.56;7701746;22;20270;-65
2024/04/23 14:33:43;;;;;;;2.87;2.57;;;;;;;9.95;73.33;101452.91;7721732;22;20270;-65
2024/04/23 14:37:06;;;;;;;2.47;2.37;;;;;;;10.01;73.56;101447.06;7709644;22;20262;-65
2024/04/23 14:40:30;;;;;;;5.17;2.57;;;;;;;9.88;73.83;101440.88;7716829;22;20274;-66
2024/04/23 14:43:55;;;;;;;4.40;3.10;;;;;;;9.71;74.03;101444.00;7724256;22;20301;-66
2024/04/23 14:47:14;;;;;;;2.23;2.13;;;;;;;9.26;75.01;101427.66;7703931;22;20338;-67
2024/04/23 14:50:37;;;;;;;3.27;2.77;;;;;;;9.60;75.06;101434.06;7706544;22;20297;-66
2024/04/23 14:53:59;;;;;;;3.17;2.97;;;;;;;9.42;74.64;101417.47;7719547;22;20273;-65
2024/04/23 14:57:22;;;;;;;3.20;2.93;;;;;;;9.79;73.22;101420.91;7714597;22;20266;-65
2024/04/23 15:00:47;;;;;;;3.17;2.87;;;;;;;9.31;72.60;101413.84;7705919;22;20266;-65
2024/04/23 15:04:11;;;;;;;3.33;3.03;;;;;;;9.37;73.15;101410.72;7718959;22;20266;-65
2024/04/23 15:07:33;;;;;;;6.50;3.27;;;;;;;9.17;73.41;101417.59;7697904;22;20266;-65
2024/04/23 15:10:55;;;;;;;2.90;2.70;;;;;;;9.14;74.97;101392.72;7716640;22;20262;-65
2024/04/23 15:14:19;;;;;;;3.50;3.20;;;;;;;9.24;74.82;101397.31;7722025;22;20329;-67
2024/04/23 15:17:44;;;;;;;3.63;2.63;;;;;;;9.52;74.01;101394.28;7698116;22;20266;-65
2024/04/23 15:21:05;;;;;;;3.23;2.90;;;;;;;9.53;73.45;101379.81;7707034;22;20269;-65
2024/04/23 15:24:27;;;;;;;2.97;2.73;;;;;;;9.26;74.94;101379.22;7724065;22;20270;-65
2024/04/23 15:27:50;;;;;;;4.80;3.00;;;;;;;9.24;75.47;101381.19;7706347;22;20266;-65
2024/04/23 15:31:12;;;;;;;3.97;3.57;;;;;;;9.12;76.09;101370.47;7701573;22;20501;-65
2024/04/23 15:34:37;;;;;;;4.60;3.53;;;;;;;9.22;76.91;101363.47;7724872;22;20277;-65
2024/04/23 15:37:56;;;;;;;3.73;3.30;;;;;;;9.34;75.83;101360.69;7714675;22;20270;-65
2024/04/23 15:41:19;;;;;;;3.63;3.30;;;;;;;8.97;74.44;101353.66;7711041;22;20278;-66
2024/04/23 15:44:41;;;;;;;4.80;4.40;;;;;;;8.84;74.78;101348.31;7730019;22;20854;-65
2024/04/23 15:48:01;;;;;;;3.23;2.67;;;;;;;9.05;75.73;101343.22;7708633;22;20270;-66
2024/04/23 15:51:25;;;;;;;3.77;3.47;;;;;;;9.20;75.51;101330.44;7707996;22;20345;-67